Time;durP1;ratioP1;P1;durP2;ratioP2;P2;SDS_P1;SDS_P2;PMS_P1;PMS_P2;Temp;Humidity;BMP_temperature;BMP_pressure;BME280_temperature;BME280_humidity;BME280_pressure;Samples;Min_cycle;Max_cycle;Signal;HPM_P1;HPM_P2
2022/07/07 00:01:40;;;;;;;;;;;17.90;99.90;;;;;;5046260;28;19970;-66
2022/07/07 00:04:08;;;;;;;;;;;18.00;99.90;;;;;;5068233;28;20013;-66
2022/07/07 00:06:33;;;;;;;;;;;18.10;99.90;;;;;;5050629;28;19909;-66
2022/07/07 00:08:59;;;;;;;;;;;18.00;99.90;;;;;;5069591;28;19909;-66
2022/07/07 00:11:25;;;;;;;;;;;17.90;99.90;;;;;;5068630;28;19908;-66
2022/07/07 00:13:51;;;;;;;;;;;18.00;99.90;;;;;;5051171;28;20394;-66
2022/07/07 00:16:16;;;;;;;;;;;18.00;99.90;;;;;;5069680;28;19912;-66
2022/07/07 00:18:42;;;;;;;;;;;18.00;99.90;;;;;;5068666;28;19916;-65
2022/07/07 00:21:07;;;;;;;;;;;17.90;99.90;;;;;;5069783;28;20011;-65
2022/07/07 00:23:33;;;;;;;;;;;18.00;99.90;;;;;;5065103;28;19917;-65
2022/07/07 00:25:58;;;;;;;;;;;18.00;99.90;;;;;;5069210;28;19909;-65
2022/07/07 00:28:24;;;;;;;;;;;18.00;99.90;;;;;;5051354;28;20577;-66
2022/07/07 00:30:49;;;;;;;;;;;18.00;99.90;;;;;;5050598;28;19923;-66
2022/07/07 00:33:15;;;;;;;;;;;18.00;99.90;;;;;;5069472;28;20379;-66
2022/07/07 00:35:41;;;;;;;;;;;17.90;99.90;;;;;;5067962;28;19909;-66
2022/07/07 00:38:06;;;;;;;;;;;18.00;99.90;;;;;;5069497;28;20069;-66
2022/07/07 00:40:32;;;;;;;;;;;18.00;99.90;;;;;;5067673;28;19935;-66
2022/07/07 00:42:58;;;;;;;;;;;18.10;99.90;;;;;;5055253;28;20569;-65
2022/07/07 00:45:24;;;;;;;;;;;18.00;99.90;;;;;;5073374;28;20345;-65
2022/07/07 00:47:49;;;;;;;;;;;18.10;99.90;;;;;;5072653;28;19908;-65
2022/07/07 00:50:15;;;;;;;;;;;18.00;99.90;;;;;;5073425;28;20281;-66
2022/07/07 00:52:41;;;;;;;;;;;18.00;99.90;;;;;;5071257;28;19927;-65
2022/07/07 00:55:10;;;;;;;;;;;18.00;99.90;;;;;;5049045;28;20406;-65
2022/07/07 00:57:36;;;;;;;;;;;18.00;99.90;;;;;;5069886;28;19966;-65
2022/07/07 01:00:05;;;;;;;;;;;18.00;99.90;;;;;;5051381;28;19978;-65
2022/07/07 01:02:31;;;;;;;;;;;18.00;99.90;;;;;;5070807;28;19913;-65
2022/07/07 01:04:58;;;;;;;;;;;17.90;99.90;;;;;;5069474;28;20264;-65
2022/07/07 01:07:24;;;;;;;;;;;17.90;99.90;;;;;;5071030;28;19916;-65
2022/07/07 01:09:50;;;;;;;;;;;17.80;99.90;;;;;;5068331;28;19913;-65
2022/07/07 01:12:15;;;;;;;;;;;17.70;99.90;;;;;;5053025;28;19934;-65
2022/07/07 01:14:41;;;;;;;;;;;17.60;99.90;;;;;;5052078;28;19908;-65
2022/07/07 01:17:06;;;;;;;;;;;17.60;99.90;;;;;;5052948;28;20011;-65
2022/07/07 01:19:32;;;;;;;;;;;17.60;99.90;;;;;;5070690;28;19912;-65
2022/07/07 01:22:00;;;;;;;;;;;17.60;99.90;;;;;;5070203;28;19923;-65
2022/07/07 01:24:27;;;;;;;;;;;17.70;99.90;;;;;;5044600;28;19913;-65
2022/07/07 01:27:08;;;;;;;;;;;17.80;99.90;;;;;;5070135;28;19912;-65
2022/07/07 01:29:34;;;;;;;;;;;17.70;99.90;;;;;;5052214;28;20387;-65
2022/07/07 01:31:59;;;;;;;;;;;17.70;99.90;;;;;;5069279;28;19912;-65
2022/07/07 01:34:25;;;;;;;;;;;17.70;99.90;;;;;;5052603;28;19980;-65
2022/07/07 01:36:50;;;;;;;;;;;17.60;99.90;;;;;;5069937;28;19948;-65
2022/07/07 01:39:16;;;;;;;;;;;17.60;99.90;;;;;;5052232;28;19916;-65
2022/07/07 01:41:41;;;;;;;;;;;17.50;99.90;;;;;;5068160;28;19908;-65
2022/07/07 01:44:07;;;;;;;;;;;17.50;99.90;;;;;;5070213;28;20394;-65
2022/07/07 01:46:32;;;;;;;;;;;17.40;99.90;;;;;;5070225;28;19908;-65
2022/07/07 01:48:58;;;;;;;;;;;17.40;99.90;;;;;;5069519;28;19909;-65
2022/07/07 01:51:23;;;;;;;;;;;17.40;99.90;;;;;;5070302;28;20001;-65
2022/07/07 01:53:49;;;;;;;;;;;17.50;99.90;;;;;;5069332;28;20085;-65
2022/07/07 01:56:14;;;;;;;;;;;17.50;99.90;;;;;;5070195;28;19915;-65
2022/07/07 01:58:40;;;;;;;;;;;17.50;99.90;;;;;;5051498;28;20113;-65
2022/07/07 02:01:05;;;;;;;;;;;17.50;99.90;;;;;;5052032;28;19920;-65
2022/07/07 02:03:31;;;;;;;;;;;17.60;99.90;;;;;;5070533;28;19913;-65
2022/07/07 02:05:57;;;;;;;;;;;17.60;99.90;;;;;;5069380;28;19908;-65
2022/07/07 02:08:22;;;;;;;;;;;17.60;99.90;;;;;;5070205;28;20272;-65
2022/07/07 02:13:32;;;;;;;;;;;17.60;99.90;;;;;;5070145;28;19915;-65
2022/07/07 02:15:57;;;;;;;;;;;17.60;99.90;;;;;;5051242;28;19908;-65
2022/07/07 02:18:23;;;;;;;;;;;17.60;99.90;;;;;;5069786;28;19912;-65
2022/07/07 02:20:48;;;;;;;;;;;17.60;99.90;;;;;;5051170;28;19909;-65
2022/07/07 02:23:14;;;;;;;;;;;17.60;99.90;;;;;;5051708;28;19951;-65
2022/07/07 02:25:39;;;;;;;;;;;17.60;99.90;;;;;;5068852;28;20256;-65
2022/07/07 02:28:05;;;;;;;;;;;17.60;99.90;;;;;;5051778;28;20344;-65
2022/07/07 02:30:31;;;;;;;;;;;17.50;99.90;;;;;;5069720;28;19920;-65
2022/07/07 02:32:57;;;;;;;;;;;17.60;99.90;;;;;;5051105;28;19978;-65
2022/07/07 02:35:22;;;;;;;;;;;17.60;99.90;;;;;;5051275;28;19908;-65
2022/07/07 02:37:48;;;;;;;;;;;17.60;99.90;;;;;;5069063;28;20368;-65
2022/07/07 02:40:13;;;;;;;;;;;17.60;99.90;;;;;;5067338;28;19938;-65
2022/07/07 02:42:39;;;;;;;;;;;17.60;99.90;;;;;;5068800;28;19908;-65
2022/07/07 02:45:04;;;;;;;;;;;17.60;99.90;;;;;;5051349;28;20324;-65
2022/07/07 02:47:30;;;;;;;;;;;17.60;99.90;;;;;;5069249;28;19908;-65
2022/07/07 02:49:55;;;;;;;;;;;17.60;99.90;;;;;;5068582;28;19912;-65
2022/07/07 02:52:21;;;;;;;;;;;17.60;99.90;;;;;;5069110;28;19908;-65
2022/07/07 02:54:46;;;;;;;;;;;17.50;99.90;;;;;;5068255;28;19919;-65
2022/07/07 02:57:13;;;;;;;;;;;17.60;99.90;;;;;;5069192;28;19919;-65
2022/07/07 02:59:38;;;;;;;;;;;17.50;99.90;;;;;;5067361;28;19920;-65
2022/07/07 03:02:04;;;;;;;;;;;17.50;99.90;;;;;;5068488;28;20046;-65
2022/07/07 03:04:29;;;;;;;;;;;17.50;99.90;;;;;;5067840;28;20002;-65
2022/07/07 03:06:55;;;;;;;;;;;17.50;99.90;;;;;;5064828;28;20386;-65
2022/07/07 03:09:20;;;;;;;;;;;17.60;99.90;;;;;;5068681;28;19915;-65
2022/07/07 03:11:46;;;;;;;;;;;17.60;99.90;;;;;;5066525;28;19913;-65
2022/07/07 03:14:11;;;;;;;;;;;17.50;99.90;;;;;;5068865;28;20364;-65
2022/07/07 03:16:37;;;;;;;;;;;17.50;99.90;;;;;;5049989;28;19908;-65
2022/07/07 03:19:03;;;;;;;;;;;17.50;99.90;;;;;;5068697;28;19916;-65
2022/07/07 03:21:28;;;;;;;;;;;17.40;99.90;;;;;;5068402;28;19915;-65
2022/07/07 03:23:54;;;;;;;;;;;17.20;99.90;;;;;;5067822;28;20516;-65
2022/07/07 03:26:19;;;;;;;;;;;17.10;99.90;;;;;;5068536;28;19955;-64
2022/07/07 03:28:45;;;;;;;;;;;17.00;99.90;;;;;;5067881;28;19944;-64
2022/07/07 03:31:10;;;;;;;;;;;17.00;99.90;;;;;;5068692;28;20395;-65
2022/07/07 03:33:36;;;;;;;;;;;17.00;99.90;;;;;;5067942;28;19921;-64
2022/07/07 03:36:01;;;;;;;;;;;16.80;99.90;;;;;;5050501;28;19931;-64
2022/07/07 03:38:27;;;;;;;;;;;16.60;99.90;;;;;;5068399;28;20372;-64
2022/07/07 03:40:52;;;;;;;;;;;16.40;99.90;;;;;;5065452;28;20362;-64
2022/07/07 03:43:20;;;;;;;;;;;16.30;99.90;;;;;;5068083;28;19991;-64
2022/07/07 03:45:45;;;;;;;;;;;16.20;99.90;;;;;;5067155;28;19927;-64
2022/07/07 03:48:11;;;;;;;;;;;16.20;99.90;;;;;;5050288;28;19913;-62
2022/07/07 03:50:37;;;;;;;;;;;16.10;99.90;;;;;;5067835;28;19946;-62
2022/07/07 03:53:02;;;;;;;;;;;16.10;99.90;;;;;;5068310;28;20299;-62
2022/07/07 03:55:28;;;;;;;;;;;16.10;99.90;;;;;;5068164;28;19908;-62
2022/07/07 03:57:54;;;;;;;;;;;16.00;99.90;;;;;;5067908;28;20018;-62
2022/07/07 04:00:19;;;;;;;;;;;16.00;99.90;;;;;;5065694;28;19929;-62
2022/07/07 04:02:45;;;;;;;;;;;16.00;99.90;;;;;;5066647;28;19912;-62
2022/07/07 04:05:10;;;;;;;;;;;15.90;99.90;;;;;;5067965;28;19908;-61
2022/07/07 04:07:36;;;;;;;;;;;15.90;99.90;;;;;;5066845;28;19916;-61
2022/07/07 04:10:02;;;;;;;;;;;15.90;99.90;;;;;;5065827;28;20268;-62
2022/07/07 04:12:28;;;;;;;;;;;15.90;99.90;;;;;;5064999;28;19952;-62
2022/07/07 04:14:53;;;;;;;;;;;15.90;99.90;;;;;;5067961;28;19947;-65
2022/07/07 04:17:19;;;;;;;;;;;16.00;99.90;;;;;;5072058;28;19908;-64
2022/07/07 04:19:44;;;;;;;;;;;16.00;99.90;;;;;;5071652;28;19912;-66
2022/07/07 04:22:10;;;;;;;;;;;16.00;99.90;;;;;;5072099;28;19920;-64
2022/07/07 04:24:35;;;;;;;;;;;16.00;99.90;;;;;;5051998;28;20030;-66
2022/07/07 04:27:01;;;;;;;;;;;16.00;99.90;;;;;;5071915;28;19917;-63
2022/07/07 04:29:26;;;;;;;;;;;16.00;99.90;;;;;;5051273;28;19962;-65
2022/07/07 04:31:52;;;;;;;;;;;16.00;99.90;;;;;;5048898;28;20162;-64
2022/07/07 04:34:17;;;;;;;;;;;16.10;99.90;;;;;;5070874;28;19908;-64
2022/07/07 04:36:43;;;;;;;;;;;16.10;99.90;;;;;;5070152;28;20414;-63
2022/07/07 04:39:11;;;;;;;;;;;16.10;99.90;;;;;;5070968;28;19920;-64
2022/07/07 04:41:37;;;;;;;;;;;16.10;99.90;;;;;;5049184;28;20287;-64
2022/07/07 04:44:02;;;;;;;;;;;16.10;99.90;;;;;;5068661;28;19908;-64
2022/07/07 04:46:28;;;;;;;;;;;16.20;99.90;;;;;;5070513;28;20054;-64
2022/07/07 04:48:53;;;;;;;;;;;16.20;99.90;;;;;;5048121;28;20320;-64
2022/07/07 04:51:19;;;;;;;;;;;16.20;99.90;;;;;;5071172;28;19908;-64
2022/07/07 04:53:44;;;;;;;;;;;16.30;99.90;;;;;;5069735;28;19909;-64
2022/07/07 04:56:10;;;;;;;;;;;16.30;99.90;;;;;;5070089;28;19913;-64
2022/07/07 04:58:35;;;;;;;;;;;16.30;99.90;;;;;;5069438;28;19917;-64
2022/07/07 05:01:01;;;;;;;;;;;16.30;99.90;;;;;;5068274;28;19920;-64
2022/07/07 05:03:27;;;;;;;;;;;16.30;99.90;;;;;;5070525;28;19920;-64
2022/07/07 05:05:52;;;;;;;;;;;16.20;99.90;;;;;;5066765;28;19916;-64
2022/07/07 05:08:17;;;;;;;;;;;16.20;99.90;;;;;;5068998;28;19924;-64
2022/07/07 05:10:43;;;;;;;;;;;16.10;99.90;;;;;;5047041;28;19965;-64
2022/07/07 05:13:08;;;;;;;;;;;16.10;99.90;;;;;;5069601;28;19915;-64
2022/07/07 05:15:34;;;;;;;;;;;16.10;99.90;;;;;;5070138;28;20003;-64
2022/07/07 05:17:59;;;;;;;;;;;16.10;99.90;;;;;;5068093;28;20275;-64
2022/07/07 05:20:25;;;;;;;;;;;16.10;99.90;;;;;;5051783;28;19963;-64
2022/07/07 05:22:51;;;;;;;;;;;16.00;99.90;;;;;;5066189;28;19909;-64
2022/07/07 05:25:16;;;;;;;;;;;16.00;99.90;;;;;;5069732;28;20303;-64
2022/07/07 05:27:44;;;;;;;;;;;16.00;99.90;;;;;;5049607;28;19961;-65
2022/07/07 05:30:10;;;;;;;;;;;16.00;99.90;;;;;;5065223;28;20304;-64
2022/07/07 05:32:35;;;;;;;;;;;15.90;99.90;;;;;;5066293;28;19909;-64
2022/07/07 05:35:01;;;;;;;;;;;15.90;99.90;;;;;;5070461;28;19919;-64
2022/07/07 05:37:26;;;;;;;;;;;15.90;99.90;;;;;;5070513;28;20287;-64
2022/07/07 05:39:52;;;;;;;;;;;15.90;99.90;;;;;;5049285;28;19920;-64
2022/07/07 05:42:18;;;;;;;;;;;15.90;99.90;;;;;;5068203;28;19908;-64
2022/07/07 05:44:44;;;;;;;;;;;15.90;99.90;;;;;;5069718;28;19917;-64
2022/07/07 05:47:09;;;;;;;;;;;15.90;99.90;;;;;;5070289;28;20419;-65
2022/07/07 05:49:35;;;;;;;;;;;15.90;99.90;;;;;;5070720;28;19920;-65
2022/07/07 05:52:00;;;;;;;;;;;15.70;99.90;;;;;;5072003;28;19975;-66
2022/07/07 05:54:25;;;;;;;;;;;15.70;99.90;;;;;;5068528;28;19912;-66
2022/07/07 05:56:51;;;;;;;;;;;15.70;99.90;;;;;;5073382;28;19915;-66
2022/07/07 05:59:16;;;;;;;;;;;15.70;99.90;;;;;;5074417;28;20002;-66
2022/07/07 06:01:42;;;;;;;;;;;15.70;99.90;;;;;;5074390;28;19916;-66
2022/07/07 06:04:07;;;;;;;;;;;15.70;99.90;;;;;;5074563;28;19913;-65
2022/07/07 06:06:33;;;;;;;;;;;15.80;99.90;;;;;;5072568;28;19912;-66
2022/07/07 06:08:59;;;;;;;;;;;15.70;99.90;;;;;;5070432;28;20257;-67
2022/07/07 06:11:24;;;;;;;;;;;15.80;99.90;;;;;;5067746;28;19957;-67
2022/07/07 06:13:49;;;;;;;;;;;15.80;99.90;;;;;;5069554;28;19913;-66
2022/07/07 06:16:15;;;;;;;;;;;15.90;99.90;;;;;;5070857;28;20224;-66
2022/07/07 06:18:40;;;;;;;;;;;15.90;99.90;;;;;;5069019;28;19908;-66
2022/07/07 06:21:06;;;;;;;;;;;16.00;99.90;;;;;;5050455;28;19912;-66
2022/07/07 06:23:31;;;;;;;;;;;16.00;99.90;;;;;;5068518;28;19966;-66
2022/07/07 06:25:59;;;;;;;;;;;16.00;99.90;;;;;;5050429;28;19912;-66
2022/07/07 06:28:25;;;;;;;;;;;15.90;99.90;;;;;;5070111;28;20016;-66
2022/07/07 06:30:50;;;;;;;;;;;15.90;99.90;;;;;;5068789;28;20021;-66
2022/07/07 06:33:16;;;;;;;;;;;15.90;99.90;;;;;;5066702;28;19916;-66
2022/07/07 06:35:41;;;;;;;;;;;15.90;99.90;;;;;;5078157;28;20256;-66
2022/07/07 06:38:07;;;;;;;;;;;15.90;99.90;;;;;;5067881;28;19935;-66
2022/07/07 06:40:32;;;;;;;;;;;16.00;99.90;;;;;;5063294;28;19967;-66
2022/07/07 06:42:58;;;;;;;;;;;16.10;99.90;;;;;;5070829;28;20332;-66
2022/07/07 06:45:24;;;;;;;;;;;16.10;99.90;;;;;;5069545;28;20017;-66
2022/07/07 06:47:49;;;;;;;;;;;16.00;99.90;;;;;;5042123;28;19912;-66
2022/07/07 06:50:15;;;;;;;;;;;16.00;99.90;;;;;;5068112;28;19912;-65
2022/07/07 06:52:40;;;;;;;;;;;16.00;99.90;;;;;;5062821;28;20156;-65
2022/07/07 06:55:06;;;;;;;;;;;16.00;99.90;;;;;;5063973;28;19920;-65
2022/07/07 06:57:31;;;;;;;;;;;16.10;99.90;;;;;;5053142;28;20407;-65
2022/07/07 06:59:57;;;;;;;;;;;16.30;99.90;;;;;;5058422;28;19972;-65
2022/07/07 07:02:22;;;;;;;;;;;16.40;99.90;;;;;;5065725;28;19916;-66
2022/07/07 07:04:50;;;;;;;;;;;16.40;99.90;;;;;;5053661;28;19920;-65
2022/07/07 07:07:16;;;;;;;;;;;16.40;99.90;;;;;;5044106;28;19974;-66
2022/07/07 07:09:41;;;;;;;;;;;16.30;99.90;;;;;;5064258;28;19948;-65
2022/07/07 07:12:07;;;;;;;;;;;16.40;99.90;;;;;;5068070;28;19938;-65
2022/07/07 07:14:33;;;;;;;;;;;16.40;99.90;;;;;;5067549;28;19958;-65
2022/07/07 07:16:58;;;;;;;;;;;16.40;99.90;;;;;;5066627;28;19955;-65
2022/07/07 07:19:24;;;;;;;;;;;16.40;99.90;;;;;;5049678;28;19960;-65
2022/07/07 07:21:49;;;;;;;;;;;16.40;99.90;;;;;;5066704;28;19913;-65
2022/07/07 07:24:15;;;;;;;;;;;16.50;99.90;;;;;;5051225;28;20442;-65
2022/07/07 07:26:41;;;;;;;;;;;16.50;99.90;;;;;;5065139;28;20367;-65
2022/07/07 07:29:06;;;;;;;;;;;16.40;99.90;;;;;;5048083;28;19999;-65
2022/07/07 07:31:31;;;;;;;;;;;16.30;99.90;;;;;;5068675;28;19920;-66
2022/07/07 07:33:57;;;;;;;;;;;16.10;99.90;;;;;;5042367;28;20223;-66
2022/07/07 07:36:22;;;;;;;;;;;15.80;99.90;;;;;;5066692;28;19973;-66
2022/07/07 07:38:50;;;;;;;;;;;15.60;99.90;;;;;;5063721;28;19912;-64
2022/07/07 07:41:16;;;;;;;;;;;15.60;99.90;;;;;;5062778;28;20398;-66
2022/07/07 07:43:41;;;;;;;;;;;15.90;99.90;;;;;;5063115;28;20412;-65
2022/07/07 07:46:07;;;;;;;;;;;15.80;99.90;;;;;;5048666;28;19948;-66
2022/07/07 07:48:32;;;;;;;;;;;15.80;99.90;;;;;;5064706;28;19952;-65
2022/07/07 07:50:58;;;;;;;;;;;16.00;99.90;;;;;;5046024;28;20286;-65
2022/07/07 07:53:23;;;;;;;;;;;15.90;99.90;;;;;;5062067;28;19915;-65
2022/07/07 07:55:50;;;;;;;;;;;16.10;99.90;;;;;;5063609;28;20011;-65
2022/07/07 07:58:15;;;;;;;;;;;16.30;99.90;;;;;;5065361;28;19908;-65
2022/07/07 08:00:43;;;;;;;;;;;16.40;99.90;;;;;;5064726;28;20391;-65
2022/07/07 08:03:08;;;;;;;;;;;16.50;99.90;;;;;;5065293;28;19913;-65
2022/07/07 08:05:34;;;;;;;;;;;16.60;99.90;;;;;;5069756;28;19908;-65
2022/07/07 08:07:59;;;;;;;;;;;16.60;99.90;;;;;;5048347;28;19916;-65
2022/07/07 08:10:25;;;;;;;;;;;16.60;99.90;;;;;;5048444;28;20241;-66
2022/07/07 08:12:51;;;;;;;;;;;16.60;99.90;;;;;;5062077;28;19912;-65
2022/07/07 08:15:16;;;;;;;;;;;16.80;99.90;;;;;;5066184;28;20425;-65
2022/07/07 08:17:42;;;;;;;;;;;17.30;99.90;;;;;;5066982;28;20313;-65
2022/07/07 08:20:08;;;;;;;;;;;17.00;99.90;;;;;;5066079;28;20019;-65
2022/07/07 08:22:34;;;;;;;;;;;16.80;99.90;;;;;;5067158;28;20509;-65
2022/07/07 08:25:00;;;;;;;;;;;16.90;99.90;;;;;;5056012;28;19961;-65
2022/07/07 08:27:26;;;;;;;;;;;16.50;99.90;;;;;;5069731;28;20042;-65
2022/07/07 08:29:51;;;;;;;;;;;16.40;99.90;;;;;;5065166;28;20265;-66
2022/07/07 08:32:17;;;;;;;;;;;16.30;99.90;;;;;;5067515;28;19924;-68
2022/07/07 08:34:42;;;;;;;;;;;16.40;99.90;;;;;;5067396;28;20285;-66
2022/07/07 08:37:08;;;;;;;;;;;16.10;99.90;;;;;;5064585;28;19912;-66
2022/07/07 08:39:34;;;;;;;;;;;15.70;99.90;;;;;;5053069;28;20263;-66
2022/07/07 08:42:00;;;;;;;;;;;15.60;99.90;;;;;;5068155;28;19913;-67
2022/07/07 08:44:26;;;;;;;;;;;15.70;99.90;;;;;;5081689;28;19913;-67
2022/07/07 08:46:51;;;;;;;;;;;15.90;99.90;;;;;;5058912;28;19912;-67
2022/07/07 08:49:17;;;;;;;;;;;16.00;99.90;;;;;;5069342;28;19921;-67
2022/07/07 08:51:43;;;;;;;;;;;16.40;99.90;;;;;;5069112;28;20299;-67
2022/07/07 08:54:10;;;;;;;;;;;16.70;99.90;;;;;;5068105;28;19951;-67
2022/07/07 08:56:38;;;;;;;;;;;16.60;99.90;;;;;;5068996;28;19931;-67
2022/07/07 08:59:04;;;;;;;;;;;17.10;99.90;;;;;;5061744;28;19947;-67
2022/07/07 09:01:30;;;;;;;;;;;17.40;99.90;;;;;;5064275;28;19943;-67
2022/07/07 09:03:55;;;;;;;;;;;17.40;99.90;;;;;;5068542;28;20287;-66
2022/07/07 09:06:21;;;;;;;;;;;17.10;99.90;;;;;;5068578;28;19909;-66
2022/07/07 09:08:46;;;;;;;;;;;17.30;99.90;;;;;;5068323;28;20287;-66
2022/07/07 09:11:12;;;;;;;;;;;17.40;99.90;;;;;;5064335;28;19919;-66
2022/07/07 09:13:37;;;;;;;;;;;17.40;99.90;;;;;;5064006;28;20009;-66
2022/07/07 09:16:07;;;;;;;;;;;18.20;99.90;;;;;;5066576;28;20276;-66
2022/07/07 09:18:34;;;;;;;;;;;18.60;99.90;;;;;;5048494;28;20416;-66
2022/07/07 09:21:00;;;;;;;;;;;19.50;99.90;;;;;;5049058;28;19962;-66
2022/07/07 09:23:26;;;;;;;;;;;20.00;99.90;;;;;;5046059;28;19912;-66
2022/07/07 09:25:52;;;;;;;;;;;19.50;99.90;;;;;;5069255;28;19923;-67
2022/07/07 09:28:17;;;;;;;;;;;18.60;99.90;;;;;;5068384;28;19956;-66
2022/07/07 09:30:45;;;;;;;;;;;17.90;99.90;;;;;;5049725;28;19916;-67
2022/07/07 09:33:10;;;;;;;;;;;17.10;99.90;;;;;;5046236;28;20348;-68
2022/07/07 09:38:24;;;;;;;;;;;15.80;99.90;;;;;;5068406;28;19923;-68
2022/07/07 09:40:49;;;;;;;;;;;16.00;99.90;;;;;;5036951;28;19916;-67
2022/07/07 09:43:15;;;;;;;;;;;16.40;99.90;;;;;;5068741;28;19983;-65
2022/07/07 09:45:40;;;;;;;;;;;16.90;99.90;;;;;;5065107;28;20404;-65
2022/07/07 09:48:09;;;;;;;;;;;17.60;99.90;;;;;;5065827;28;20156;-65
2022/07/07 09:50:35;;;;;;;;;;;17.90;99.90;;;;;;5050860;28;19908;-65
2022/07/07 09:53:09;;;;;;;;;;;17.80;99.90;;;;;;5067676;28;20367;-65
2022/07/07 09:55:35;;;;;;;;;;;17.50;99.90;;;;;;5049432;28;19920;-64
2022/07/07 09:58:00;;;;;;;;;;;17.60;99.90;;;;;;5064609;28;19959;-64
2022/07/07 10:00:26;;;;;;;;;;;18.10;99.90;;;;;;5045003;28;20301;-64
2022/07/07 10:02:52;;;;;;;;;;;18.40;99.90;;;;;;5068482;28;20311;-64
2022/07/07 10:05:18;;;;;;;;;;;19.00;99.90;;;;;;5069449;28;19964;-64
2022/07/07 10:07:47;;;;;;;;;;;19.00;99.90;;;;;;5069955;28;19919;-64
2022/07/07 10:10:12;;;;;;;;;;;19.20;99.90;;;;;;5060984;28;20395;-64
2022/07/07 10:12:41;;;;;;;;;;;19.20;99.90;;;;;;5058473;28;19909;-63
2022/07/07 10:15:13;;;;;;;;;;;18.60;99.90;;;;;;5045510;28;19990;-64
2022/07/07 10:17:39;;;;;;;;;;;18.50;99.90;;;;;;5064057;28;19912;-63
2022/07/07 10:20:05;;;;;;;;;;;18.70;99.90;;;;;;5065297;28;19916;-63
2022/07/07 10:22:31;;;;;;;;;;;19.00;99.90;;;;;;5047254;28;19912;-63
2022/07/07 10:24:58;;;;;;;;;;;20.30;99.90;;;;;;5067102;28;20384;-63
2022/07/07 10:27:25;;;;;;;;;;;20.20;99.90;;;;;;5063964;28;19919;-63
2022/07/07 10:29:50;;;;;;;;;;;19.50;99.90;;;;;;5067481;28;19954;-63
2022/07/07 10:32:17;;;;;;;;;;;18.90;99.90;;;;;;5067053;28;19956;-63
2022/07/07 10:34:50;;;;;;;;;;;18.40;99.90;;;;;;5064574;28;19920;-63
2022/07/07 10:37:16;;;;;;;;;;;17.70;99.90;;;;;;5068877;28;19961;-63
2022/07/07 10:39:53;;;;;;;;;;;17.30;99.90;;;;;;5068402;28;20376;-63
2022/07/07 10:42:19;;;;;;;;;;;17.20;99.90;;;;;;5070263;28;19920;-65
2022/07/07 10:44:46;;;;;;;;;;;17.60;99.90;;;;;;5070114;28;19912;-67
2022/07/07 10:47:11;;;;;;;;;;;17.90;99.90;;;;;;5066238;28;19908;-66
2022/07/07 10:49:44;;;;;;;;;;;18.10;99.90;;;;;;5066647;28;20129;-66
2022/07/07 10:52:11;;;;;;;;;;;18.20;99.90;;;;;;5061554;28;19969;-66
2022/07/07 10:54:38;;;;;;;;;;;18.90;99.90;;;;;;5067784;28;19912;-63
2022/07/07 10:57:05;;;;;;;;;;;19.50;99.90;;;;;;5066606;28;19912;-63
2022/07/07 10:59:50;;;;;;;;;;;19.90;99.90;;;;;;5068118;28;19921;-66
2022/07/07 11:02:16;;;;;;;;;;;19.70;99.90;;;;;;5064683;28;19916;-67
2022/07/07 11:04:41;;;;;;;;;;;20.40;99.90;;;;;;5063364;28;19958;-67
2022/07/07 11:07:09;;;;;;;;;;;21.10;99.90;;;;;;5065004;28;20256;-67
2022/07/07 11:09:53;;;;;;;;;;;20.40;99.90;;;;;;5066640;28;19956;-67
2022/07/07 11:12:34;;;;;;;;;;;20.40;99.90;;;;;;5057047;28;19919;-67
2022/07/07 11:15:18;;;;;;;;;;;20.50;99.90;;;;;;5054665;28;19951;-67
2022/07/07 11:17:48;;;;;;;;;;;19.90;99.90;;;;;;5064445;28;19917;-67
2022/07/07 11:20:14;;;;;;;;;;;19.30;99.90;;;;;;5063421;28;20302;-67
2022/07/07 11:22:49;;;;;;;;;;;19.30;99.90;;;;;;5064938;28;19913;-67
2022/07/07 11:25:17;;;;;;;;;;;19.40;99.90;;;;;;5059611;28;19912;-67
2022/07/07 11:27:43;;;;;;;;;;;19.60;99.90;;;;;;5046621;28;19938;-67
2022/07/07 11:30:08;;;;;;;;;;;19.60;99.90;;;;;;5058897;28;19962;-67
2022/07/07 11:32:36;;;;;;;;;;;19.30;99.90;;;;;;5038470;28;19974;-67
2022/07/07 11:35:05;;;;;;;;;;;19.20;99.90;;;;;;5062986;28;19935;-67
2022/07/07 11:37:31;;;;;;;;;;;19.10;99.90;;;;;;5066171;28;20350;-67
2022/07/07 11:39:57;;;;;;;;;;;19.40;99.90;;;;;;5060062;28;19924;-65
2022/07/07 11:42:23;;;;;;;;;;;19.90;99.90;;;;;;5066924;28;19913;-65
2022/07/07 11:44:49;;;;;;;;;;;20.50;99.90;;;;;;5051696;28;19916;-65
2022/07/07 11:47:15;;;;;;;;;;;21.10;99.90;;;;;;5067228;28;19919;-65
2022/07/07 11:49:41;;;;;;;;;;;21.70;99.90;;;;;;5068583;28;19917;-65
2022/07/07 11:52:11;;;;;;;;;;;21.80;99.90;;;;;;5066833;28;19916;-65
2022/07/07 11:54:48;;;;;;;;;;;21.10;99.90;;;;;;5067675;28;20019;-65
2022/07/07 11:57:26;;;;;;;;;;;20.60;99.90;;;;;;5056152;28;19959;-65
2022/07/07 11:59:51;;;;;;;;;;;19.50;99.90;;;;;;5067852;28;20015;-65
2022/07/07 12:02:17;;;;;;;;;;;18.80;99.90;;;;;;5067408;28;20555;-65
2022/07/07 12:04:43;;;;;;;;;;;18.60;99.90;;;;;;5064366;28;19913;-65
2022/07/07 12:07:09;;;;;;;;;;;18.30;99.90;;;;;;5066671;28;20444;-65
2022/07/07 12:09:35;;;;;;;;;;;18.30;99.90;;;;;;5064441;28;19955;-65
2022/07/07 12:12:00;;;;;;;;;;;18.10;99.90;;;;;;5065675;28;19952;-65
2022/07/07 12:14:27;;;;;;;;;;;18.20;99.90;;;;;;5064948;28;20395;-66
2022/07/07 12:16:52;;;;;;;;;;;18.40;99.90;;;;;;5065612;28;19916;-67
2022/07/07 12:19:18;;;;;;;;;;;18.60;99.90;;;;;;5065238;28;19924;-67
2022/07/07 12:21:45;;;;;;;;;;;18.60;99.90;;;;;;5049789;28;19912;-67
2022/07/07 12:24:14;;;;;;;;;;;18.80;99.90;;;;;;5065763;28;19940;-67
2022/07/07 12:26:48;;;;;;;;;;;18.90;99.90;;;;;;5047663;28;20382;-67
2022/07/07 12:29:15;;;;;;;;;;;19.20;99.90;;;;;;5045346;28;19923;-67
2022/07/07 12:31:41;;;;;;;;;;;19.70;99.90;;;;;;5066254;28;19923;-67
2022/07/07 12:34:13;;;;;;;;;;;19.80;99.90;;;;;;5075782;28;19921;-67
2022/07/07 12:36:40;;;;;;;;;;;20.10;99.90;;;;;;5066886;28;19930;-67
2022/07/07 12:39:06;;;;;;;;;;;20.40;99.90;;;;;;5064235;28;19930;-67
2022/07/07 12:41:32;;;;;;;;;;;20.90;99.90;;;;;;5063147;28;20302;-67
2022/07/07 12:44:14;;;;;;;;;;;21.10;99.90;;;;;;5067790;28;19916;-67
2022/07/07 12:46:40;;;;;;;;;;;21.20;99.90;;;;;;5051002;28;19913;-67
2022/07/07 12:49:06;;;;;;;;;;;20.90;99.90;;;;;;5068400;28;19927;-67
2022/07/07 12:51:31;;;;;;;;;;;20.50;99.90;;;;;;5071558;28;19913;-67
2022/07/07 12:53:58;;;;;;;;;;;20.20;99.90;;;;;;5071536;28;20312;-67
2022/07/07 12:56:30;;;;;;;;;;;19.90;99.90;;;;;;5050567;28;20392;-67
2022/07/07 12:58:56;;;;;;;;;;;19.40;99.90;;;;;;5069213;28;19916;-67
2022/07/07 13:01:23;;;;;;;;;;;19.30;99.90;;;;;;5070033;28;19984;-67
2022/07/07 13:03:53;;;;;;;;;;;18.60;99.90;;;;;;5071587;28;19924;-67
2022/07/07 13:06:19;;;;;;;;;;;18.50;99.90;;;;;;5067616;28;19932;-67
2022/07/07 13:08:45;;;;;;;;;;;18.50;99.90;;;;;;5070289;28;20613;-67
2022/07/07 13:11:11;;;;;;;;;;;18.50;99.90;;;;;;5062907;28;20212;-67
2022/07/07 13:13:37;;;;;;;;;;;18.60;99.90;;;;;;5068761;28;19913;-63
2022/07/07 13:16:03;;;;;;;;;;;19.00;99.90;;;;;;5069627;28;20731;-63
2022/07/07 13:18:28;;;;;;;;;;;19.30;99.90;;;;;;5042936;28;19916;-63
2022/07/07 13:20:56;;;;;;;;;;;19.70;99.90;;;;;;5068653;28;19978;-63
2022/07/07 13:23:22;;;;;;;;;;;20.00;99.90;;;;;;5043579;28;19909;-63
2022/07/07 13:25:48;;;;;;;;;;;20.20;99.90;;;;;;5051562;28;19924;-63
2022/07/07 13:28:13;;;;;;;;;;;20.00;99.90;;;;;;5048990;28;19916;-63
2022/07/07 13:30:39;;;;;;;;;;;19.70;99.90;;;;;;5064571;28;19920;-63
2022/07/07 13:33:04;;;;;;;;;;;19.60;99.90;;;;;;5067259;28;19951;-63
2022/07/07 13:35:30;;;;;;;;;;;19.50;99.90;;;;;;5064442;28;20438;-63
2022/07/07 13:37:55;;;;;;;;;;;19.60;99.90;;;;;;5052210;28;20087;-66
2022/07/07 13:40:22;;;;;;;;;;;19.80;99.90;;;;;;5067830;28;19916;-67
2022/07/07 13:42:47;;;;;;;;;;;19.90;99.90;;;;;;5049039;28;19928;-67
2022/07/07 13:45:13;;;;;;;;;;;19.60;99.90;;;;;;5056638;28;19974;-67
2022/07/07 13:47:38;;;;;;;;;;;19.60;99.90;;;;;;5064212;28;19992;-67
2022/07/07 13:50:04;;;;;;;;;;;19.60;99.90;;;;;;5050594;28;19917;-67
2022/07/07 13:52:30;;;;;;;;;;;19.70;99.90;;;;;;5051581;28;20588;-67
2022/07/07 13:54:55;;;;;;;;;;;19.80;99.90;;;;;;5070184;28;20015;-67
2022/07/07 13:57:21;;;;;;;;;;;19.70;99.90;;;;;;5070217;28;19913;-67
2022/07/07 13:59:48;;;;;;;;;;;19.40;99.90;;;;;;5068300;28;19924;-67
2022/07/07 14:02:13;;;;;;;;;;;19.30;99.90;;;;;;5068561;28;19988;-67
2022/07/07 14:04:39;;;;;;;;;;;19.30;99.90;;;;;;5069970;28;19913;-67
2022/07/07 14:07:05;;;;;;;;;;;19.00;99.90;;;;;;5070162;28;20425;-67
2022/07/07 14:09:30;;;;;;;;;;;18.70;99.90;;;;;;5065872;28;20478;-67
2022/07/07 14:11:58;;;;;;;;;;;18.50;99.90;;;;;;5048630;28;19916;-63
2022/07/07 14:14:23;;;;;;;;;;;18.30;99.90;;;;;;5069273;28;19912;-63
2022/07/07 14:16:49;;;;;;;;;;;18.10;99.90;;;;;;5067196;28;20265;-63